METAR-Geschichte Noord Nederlandse Zweefvliegclub (NL-0036)

14. August 2022

Uhrzeit Code Wetter Temp. Sichtweite Wolkendecke Wind METAR/SPECI
01:20
L
18 °C 0 m - Var 000° 0 kt METAR ETNT 132320Z AUTO /////KT //// // ////// 18/15 Q1015 ///
00:20
L
19 °C 0 m - Var 000° 0 kt METAR ETNT 132220Z AUTO /////KT //// // ////// 19/16 Q1015 ///

13. August 2022

Uhrzeit Code Wetter Temp. Sichtweite Wolkendecke Wind METAR/SPECI
23:20
L
21 °C 0 m - Var 000° 0 kt METAR ETNT 132120Z AUTO /////KT //// // ////// 21/16 Q1015 ///
22:20
L
21 °C 0 m - Var 000° 0 kt METAR ETNT 132020Z AUTO /////KT //// // ////// 21/15 Q1015 ///
21:20
L
23 °C 0 m - Var 000° 0 kt METAR ETNT 131920Z AUTO /////KT //// // ////// 23/14 Q1015 ///
20:20
L
25 °C 0 m - Var 000° 0 kt METAR ETNT 131820Z AUTO /////KT //// // ////// 25/13 Q1015 ///
19:20
L
27 °C 0 m - Var 000° 0 kt METAR ETNT 131720Z AUTO /////KT //// // ////// 27/12 Q1015 ///
18:20
L
29 °C 0 m - Var 000° 0 kt METAR ETNT 131620Z AUTO /////KT //// // ////// 29/12 Q1016 ///
17:20
L
30 °C 0 m - Var 000° 0 kt METAR ETNT 131520Z AUTO /////KT //// // ////// 30/12 Q1016 ///
16:20
L
30 °C 0 m - Var 000° 0 kt METAR ETNT 131420Z AUTO /////KT //// // ////// 30/12 Q1017 ///
15:20
L
29 °C 0 m - Var 000° 0 kt METAR ETNT 131320Z AUTO /////KT //// // ////// 29/12 Q1017 ///
14:20
L
30 °C 0 m - Var 000° 0 kt METAR ETNT 131220Z AUTO /////KT //// // ////// 30/11 Q1018 ///
13:20
L
30 °C 0 m - Var 000° 0 kt METAR ETNT 131120Z AUTO /////KT //// // ////// 30/10 Q1018 ///
12:20
L
29 °C 0 m - Var 000° 0 kt METAR ETNT 131020Z AUTO /////KT //// // ////// 29/11 Q1018 ///
11:20
L
29 °C 0 m - Var 000° 0 kt METAR ETNT 130920Z AUTO /////KT //// // ////// 29/11 Q1019 ///
10:20
L
27 °C 0 m - Var 000° 0 kt METAR ETNT 130820Z AUTO /////KT //// // ////// 27/12 Q1019 ///
09:20
L
24 °C 0 m - Var 000° 0 kt METAR ETNT 130720Z AUTO /////KT //// // ////// 24/12 Q1019 ///
08:20
L
20 °C 0 m - Var 000° 0 kt METAR ETNT 130620Z AUTO /////KT //// // ////// 20/13 Q1018 ///
07:20
L
16 °C 0 m - Var 000° 0 kt METAR ETNT 130520Z AUTO /////KT //// // ////// 16/13 Q1018 ///
06:20
L
13 °C 0 m - Var 000° 0 kt METAR ETNT 130420Z AUTO /////KT //// // ////// 13/12 Q1018 ///
05:20
L
13 °C 0 m - Var 000° 0 kt METAR ETNT 130320Z AUTO /////KT //// // ////// 13/12 Q1018 ///
04:20
L
13 °C 0 m - Var 000° 0 kt METAR ETNT 130220Z AUTO /////KT //// // ////// 13/12 Q1018 ///
03:20
L
14 °C 0 m - Var 000° 0 kt METAR ETNT 130120Z AUTO /////KT //// // ////// 14/13 Q1018 ///
02:20
L
15 °C 0 m - Var 000° 0 kt METAR ETNT 130020Z AUTO /////KT //// // ////// 15/14 Q1019 ///
01:20
L
18 °C 0 m - Var 000° 0 kt METAR ETNT 122320Z AUTO /////KT //// // ////// 18/16 Q1019 ///
00:20
L
18 °C 0 m - Var 000° 0 kt METAR ETNT 122220Z AUTO /////KT //// // ////// 18/16 Q1019 ///

12. August 2022

Uhrzeit Code Wetter Temp. Sichtweite Wolkendecke Wind METAR/SPECI
23:20
L
20 °C 0 m - Var 000° 0 kt METAR ETNT 122120Z AUTO /////KT //// // ////// 20/15 Q1019 ///
22:20
L
20 °C 0 m - Var 000° 0 kt METAR ETNT 122020Z AUTO /////KT //// // ////// 20/14 Q1019 ///
21:20
L
23 °C 0 m - Var 000° 0 kt METAR ETNT 121920Z AUTO /////KT //// // ////// 23/14 Q1019 ///
20:20
L
26 °C 0 m - Var 000° 0 kt METAR ETNT 121820Z AUTO /////KT //// // ////// 26/12 Q1018 ///
19:20
L
28 °C 0 m - Var 000° 0 kt METAR ETNT 121720Z AUTO /////KT //// // ////// 28/11 Q1018 ///
18:20
L
29 °C 0 m - Var 000° 0 kt METAR ETNT 121620Z AUTO /////KT //// // ////// 29/13 Q1019 ///
17:20
L
29 °C 0 m - Var 000° 0 kt METAR ETNT 121520Z AUTO /////KT //// // ////// 29/12 Q1019 ///
16:20
L
30 °C 0 m - Var 000° 0 kt METAR ETNT 121420Z AUTO /////KT //// // ////// 30/13 Q1019 ///
15:20
L
29 °C 0 m - Var 000° 0 kt METAR ETNT 121320Z AUTO /////KT //// // ////// 29/14 Q1019 ///
14:20
L
29 °C 0 m - Var 000° 0 kt METAR ETNT 121220Z AUTO /////KT //// // ////// 29/13 Q1020 ///
13:20
V
29 °C 10 km+ - 080° 080° 6 kt METAR ETNT 121120Z 08006KT 9999 29/10 Q1020 BLACKBLU+
12:20
V
28 °C 10 km+ - 070° 070° 4 kt METAR ETNT 121020Z 07004KT 9999 28/13 Q1021 BLACKBLU+
11:20
V
26 °C 10 km+ - 090° 090° 4 kt METAR ETNT 120920Z 09004KT 9999 26/14 Q1021 BLACKBLU+
10:20
V
24 °C 10 km+ - 090° 090° 4 kt METAR ETNT 120820Z 09004KT 9999 24/13 Q1021 BLACKBLU+
09:20
V
22 °C 10 km+ - 060° 060° 4 kt METAR ETNT 120720Z 06004KT 9999 FEW320 22/12 Q1021 BLACKBLU+
08:20
V
19 °C 10 km+ - 050° 050° 5 kt METAR ETNT 120620Z 05005KT 9999 19/12 Q1021 BLACKBLU+
07:20
V
18 °C 10 km+ - 030° 030° 3 kt METAR ETNT 120520Z 03003KT 9999 18/13 Q1021 BLACKBLU+
06:20
V
15 °C 10 km+ - Var Var 3 kt METAR ETNT 120420Z VRB03KT 9999 MIFG 15/13 Q1021 BLACKBLU+
05:20
L
0 °C 0 m - Var 000° 0 kt METAR ETNT 120320Z AUTO /////KT //// // ////// ///// Q//// ///
04:20
L
0 °C 0 m - Var 000° 0 kt METAR ETNT 120220Z AUTO /////KT //// // ////// ///// Q//// ///
03:20
L
0 °C 0 m - Var 000° 0 kt METAR ETNT 120120Z AUTO /////KT //// // ////// ///// Q//// ///
02:20
L
0 °C 0 m - Var 000° 0 kt METAR ETNT 120020Z AUTO /////KT //// // ////// ///// Q//// ///
01:20
L
0 °C 0 m - Var 000° 0 kt METAR ETNT 112320Z AUTO /////KT //// // ////// ///// Q//// ///
00:20
L
0 °C 0 m - Var 000° 0 kt METAR ETNT 112220Z AUTO /////KT //// // ////// ///// Q//// ///

11. August 2022

Uhrzeit Code Wetter Temp. Sichtweite Wolkendecke Wind METAR/SPECI
23:20
L
0 °C 0 m - Var 000° 0 kt METAR ETNT 112120Z AUTO /////KT //// // ////// ///// Q//// ///
22:20
L
0 °C 0 m - Var 000° 0 kt METAR ETNT 112020Z AUTO /////KT //// // ////// ///// Q//// ///
21:20
L
0 °C 0 m - Var 000° 0 kt METAR ETNT 111920Z AUTO /////KT //// // ////// ///// Q//// ///
20:20
L
0 °C 0 m - Var 000° 0 kt METAR ETNT 111820Z AUTO /////KT //// // ////// ///// Q000/ ///
19:20
V
27 °C 10 km+ - 020° 020° 7 kt METAR ETNT 111720Z 02007KT 9999 27/14 Q1021 BLACKBLU+
18:20
V
28 °C 10 km+ - 020° 020° 6 kt METAR ETNT 111620Z 02006KT 9999 28/14 Q1022 BLACKBLU+
17:20
V
29 °C 10 km+ - 020° 020° 5 kt METAR ETNT 111520Z 02005KT 9999 29/13 Q1022 BLACKBLU+
Ältere Daten

Wir und Dritte verfolgen dein Internetverhalten auf unserer Website mit Cookies. Wenn du fortfährst, gehen wir davon aus, dass du mit unserer Cookie-Richtlinie einverstanden bist. Mehr erfahren